createdAt,value
2023-05-02T00:01:56.236Z,11.75
2023-05-02T00:07:59.800Z,13.50
2023-05-02T00:14:02.969Z,15.50
2023-05-02T00:20:05.673Z,16.00
2023-05-02T00:26:10.843Z,16.00
2023-05-02T00:32:20.469Z,13.75
2023-05-02T00:38:25.007Z,14.75
2023-05-02T00:44:28.931Z,14.00
2023-05-02T00:50:33.103Z,14.75
2023-05-02T00:56:36.143Z,15.25
2023-05-02T01:02:49.702Z,15.25
2023-05-02T01:09:05.956Z,15.25
2023-05-02T01:15:11.758Z,15.00
2023-05-02T01:21:14.977Z,15.50
2023-05-02T01:27:42.365Z,18.75
2023-05-02T01:33:48.345Z,18.25
2023-05-02T01:39:54.180Z,21.00
2023-05-02T01:45:58.995Z,12.25
2023-05-02T01:52:05.501Z,15.00
2023-05-02T01:58:11.888Z,15.50
2023-05-02T02:04:18.226Z,14.00
2023-05-02T02:10:25.622Z,12.50
2023-05-02T02:16:34.017Z,12.50
2023-05-02T02:22:40.678Z,11.25
2023-05-02T02:28:44.502Z,12.50
2023-05-02T02:34:53.179Z,12.75
2023-05-02T02:41:08.353Z,13.50
2023-05-02T02:47:24.643Z,11.25
2023-05-02T02:53:35.228Z,11.00
2023-05-02T02:59:48.252Z,11.00
2023-05-02T03:05:52.820Z,10.00
2023-05-02T03:11:59.716Z,9.25
2023-05-02T03:18:03.803Z,10.00
2023-05-02T03:24:06.941Z,9.00
2023-05-02T03:30:11.051Z,10.50
2023-05-02T03:36:13.556Z,10.25
2023-05-02T03:42:17.811Z,11.00
2023-05-02T03:48:21.344Z,10.00
2023-05-02T03:54:24.932Z,10.50
2023-05-02T04:07:19.776Z,12.50
